createdAt,value
2017-04-25T00:00:40.613Z,22.9
2017-04-25T00:01:41.764Z,22.9
2017-04-25T00:02:41.884Z,22.9
2017-04-25T00:03:40.812Z,22.9
2017-04-25T00:04:41.869Z,22.9
2017-04-25T00:05:41.894Z,22.9
2017-04-25T00:06:42.073Z,22.9
2017-04-25T00:07:41.015Z,22.9
2017-04-25T00:08:42.165Z,23
2017-04-25T00:09:41.207Z,22.9
2017-04-25T00:10:41.290Z,23
2017-04-25T00:11:41.292Z,23
2017-04-25T00:12:42.457Z,23
2017-04-25T00:13:42.511Z,23
2017-04-25T00:14:42.520Z,23
2017-04-25T00:15:41.467Z,23
2017-04-25T00:16:42.689Z,23
2017-04-25T00:17:41.706Z,23
2017-04-25T00:18:41.744Z,23
2017-04-25T00:19:42.803Z,23
2017-04-25T00:20:42.909Z,23
2017-04-25T00:21:42.945Z,23
2017-04-25T00:22:42.016Z,23
2017-04-25T00:23:43.154Z,23
2017-04-25T00:24:42.122Z,23
2017-04-25T00:25:42.063Z,23
2017-04-25T00:26:43.220Z,23
2017-04-25T00:27:42.202Z,23
2017-04-25T00:28:43.175Z,23
2017-04-25T00:29:42.246Z,23
2017-04-25T00:30:43.399Z,23
2017-04-25T00:31:42.405Z,23
2017-04-25T00:32:43.469Z,23
2017-04-25T00:33:42.381Z,23
2017-04-25T00:34:42.405Z,23
2017-04-25T00:35:43.479Z,23
2017-04-25T00:36:42.398Z,23
2017-04-25T00:37:42.586Z,23
2017-04-25T00:38:42.695Z,23
2017-04-25T00:39:43.681Z,23
2017-04-25T00:40:42.748Z,23
2017-04-25T00:41:42.804Z,23
2017-04-25T00:42:42.893Z,23
2017-04-25T00:43:42.984Z,23
2017-04-25T00:44:42.895Z,23
2017-04-25T00:45:44.070Z,23
2017-04-25T00:46:43.997Z,23
2017-04-25T00:47:44.007Z,23.1
2017-04-25T00:48:43.095Z,23.1
2017-04-25T00:49:44.092Z,23.1
2017-04-25T00:50:43.168Z,23.1
2017-04-25T00:51:44.236Z,23.1
2017-04-25T00:52:44.329Z,23.1
2017-04-25T00:53:43.261Z,23.1
2017-04-25T00:54:44.455Z,23.1
2017-04-25T00:55:43.394Z,23.1
2017-04-25T00:56:44.635Z,23.1
2017-04-25T00:57:44.708Z,23.1
2017-04-25T00:58:44.712Z,23.1
2017-04-25T00:59:44.709Z,23.1
2017-04-25T01:00:43.765Z,23.1
2017-04-25T01:01:44.810Z,23.1
2017-04-25T01:02:44.884Z,23.1
2017-04-25T01:03:43.925Z,23.1
2017-04-25T01:04:44.011Z,23.1
2017-04-25T01:05:45.093Z,23.1
2017-04-25T01:06:45.152Z,23.1
2017-04-25T01:07:44.112Z,23.1
2017-04-25T01:08:45.286Z,23.1
2017-04-25T01:09:45.991Z,23.1
2017-04-25T01:10:44.150Z,23.1
2017-04-25T01:11:45.291Z,23.1
2017-04-25T01:12:44.278Z,23.1
2017-04-25T01:13:44.394Z,23.1
2017-04-25T01:14:44.421Z,23.1
2017-04-25T01:15:44.437Z,23.1
2017-04-25T01:16:45.537Z,23.1
2017-04-25T01:17:44.521Z,23.1
2017-04-25T01:18:45.696Z,23.1
2017-04-25T01:19:44.568Z,23.1
2017-04-25T01:20:44.599Z,23.1
2017-04-25T01:21:45.745Z,23.1
2017-04-25T01:22:44.689Z,23.1
2017-04-25T01:23:44.785Z,23.1
2017-04-25T01:24:45.867Z,23.1
2017-04-25T01:25:45.928Z,23.1
2017-04-25T01:26:45.989Z,23.1
2017-04-25T01:27:46.088Z,23.1
2017-04-25T01:28:46.121Z,23.1
2017-04-25T01:29:45.052Z,23.2
2017-04-25T01:30:45.178Z,23.1
2017-04-25T01:31:46.185Z,23.2
2017-04-25T01:32:46.311Z,23.1
2017-04-25T01:33:46.316Z,23.1
2017-04-25T01:34:45.223Z,23.1
2017-04-25T01:35:46.365Z,23.2
2017-04-25T01:36:45.272Z,23.2
2017-04-25T01:37:45.479Z,23.2
2017-04-25T01:38:46.528Z,23.2
2017-04-25T01:39:45.558Z,23.2
2017-04-25T01:40:45.564Z,23.2
2017-04-25T01:41:46.634Z,23.2
2017-04-25T01:42:46.729Z,23.2
2017-04-25T01:43:45.577Z,23.2
2017-04-25T01:44:45.726Z,23.2
2017-04-25T01:45:46.760Z,23.2
2017-04-25T01:46:45.863Z,23.2
2017-04-25T01:47:46.925Z,23.2
2017-04-25T01:48:47.012Z,23.2
2017-04-25T01:49:47.024Z,23.2
2017-04-25T01:50:47.080Z,23.2
2017-04-25T01:51:46.048Z,23.2
2017-04-25T01:52:46.138Z,23.2
2017-04-25T01:53:47.306Z,23.2
2017-04-25T01:54:46.147Z,23.2
2017-04-25T01:55:47.338Z,23.2
2017-04-25T01:56:46.862Z,23.2
2017-04-25T01:57:47.542Z,23.2
2017-04-25T01:58:47.539Z,23.2
2017-04-25T01:59:46.390Z,23.2
2017-04-25T02:00:46.421Z,23.2
2017-04-25T02:01:46.568Z,23.2
2017-04-25T02:02:46.515Z,23.2
2017-04-25T02:03:46.652Z,23.2
2017-04-25T02:04:47.649Z,23.2
2017-04-25T02:05:46.698Z,23.2
2017-04-25T02:06:47.688Z,23.2
2017-04-25T02:07:46.746Z,23.2
2017-04-25T02:08:46.770Z,23.2
2017-04-25T02:09:46.860Z,23.2
2017-04-25T02:10:47.982Z,23.2
2017-04-25T02:11:46.985Z,23.2
2017-04-25T02:12:47.083Z,23.2
2017-04-25T02:13:48.101Z,23.2
2017-04-25T02:14:48.186Z,23.2
2017-04-25T02:15:48.167Z,23.2
2017-04-25T02:16:48.253Z,23.2
2017-04-25T02:17:48.322Z,23.2
2017-04-25T02:18:48.308Z,23.2
2017-04-25T02:19:48.350Z,23.2
2017-04-25T02:20:48.371Z,23.2
2017-04-25T02:21:47.401Z,23.2
2017-04-25T02:22:48.581Z,23.2
2017-04-25T02:23:48.646Z,23.3
2017-04-25T02:24:47.647Z,23.3
2017-04-25T02:25:48.778Z,23.3
2017-04-25T02:26:47.689Z,23.3
2017-04-25T02:27:48.936Z,23.2
2017-04-25T02:28:48.998Z,23.3
2017-04-25T02:29:49.093Z,23.2
2017-04-25T02:30:47.998Z,23.3
2017-04-25T02:31:49.236Z,23.3
2017-04-25T02:32:48.180Z,23.3
2017-04-25T02:33:49.359Z,23.3
2017-04-25T02:34:48.384Z,23.3
2017-04-25T02:35:48.387Z,23.3
2017-04-25T02:36:48.561Z,23.3
2017-04-25T02:37:48.542Z,23.3
2017-04-25T02:38:49.666Z,23.3
2017-04-25T02:39:49.792Z,23.3
2017-04-25T02:40:49.688Z,23.3
2017-04-25T02:41:48.835Z,23.3
2017-04-25T02:42:49.919Z,23.3
2017-04-25T02:43:49.938Z,23.3
2017-04-25T02:44:50.005Z,23.3
2017-04-25T02:45:48.934Z,23.3
2017-04-25T02:46:49.978Z,23.3
2017-04-25T02:47:50.176Z,23.3
2017-04-25T02:48:49.160Z,23.3
2017-04-25T02:49:50.198Z,23.3
2017-04-25T02:50:50.204Z,23.3
2017-04-25T02:51:50.302Z,23.3
2017-04-25T02:52:50.214Z,23.3
2017-04-25T02:53:50.323Z,23.3
2017-04-25T02:54:50.314Z,23.3
2017-04-25T02:55:49.418Z,23.3
2017-04-25T02:56:49.391Z,23.3
2017-04-25T02:57:49.578Z,23.3
2017-04-25T02:58:50.620Z,23.3
2017-04-25T02:59:49.632Z,23.3
2017-04-25T03:00:50.697Z,23.3
2017-04-25T03:01:49.818Z,23.3
2017-04-25T03:02:49.868Z,23.3
2017-04-25T03:03:50.854Z,23.3
2017-04-25T03:04:49.890Z,23.3
2017-04-25T03:05:49.925Z,23.3
2017-04-25T03:06:50.048Z,23.3
2017-04-25T03:07:50.054Z,23.3
2017-04-25T03:08:50.087Z,23.3
2017-04-25T03:09:51.129Z,23.3
2017-04-25T03:10:51.137Z,23.3
2017-04-25T03:11:50.069Z,23.3
2017-04-25T03:12:51.294Z,23.3
2017-04-25T03:13:51.196Z,23.3
2017-04-25T03:14:50.126Z,23.3
2017-04-25T03:15:51.287Z,23.3
2017-04-25T03:16:50.309Z,23.3
2017-04-25T03:17:50.349Z,23.3
2017-04-25T03:18:51.443Z,23.3
2017-04-25T03:19:51.617Z,23.3
2017-04-25T03:20:51.582Z,23.3
2017-04-25T03:21:51.676Z,23.3
2017-04-25T03:22:50.571Z,23.3
2017-04-25T03:23:51.799Z,23.3
2017-04-25T03:24:51.880Z,23.3
2017-04-25T03:25:51.938Z,23.3
2017-04-25T03:26:52.001Z,23.3
2017-04-25T03:27:52.033Z,23.3
2017-04-25T03:28:52.133Z,23.3
2017-04-25T03:29:51.114Z,23.3
2017-04-25T03:30:51.165Z,23.3
2017-04-25T03:31:52.245Z,23.3
2017-04-25T03:32:52.276Z,23.3
2017-04-25T03:33:52.383Z,23.3
2017-04-25T03:34:51.407Z,23.3
2017-04-25T03:35:52.524Z,23.3
2017-04-25T03:36:52.590Z,23.3
2017-04-25T03:37:52.693Z,23.3
2017-04-25T03:38:51.613Z,23.3
2017-04-25T03:39:52.857Z,23.4
2017-04-25T03:40:51.854Z,23.4
2017-04-25T03:41:52.938Z,23.4
2017-04-25T03:42:52.004Z,23.4
2017-04-25T03:43:51.931Z,23.4
2017-04-25T03:44:53.046Z,23.4
2017-04-25T03:45:53.136Z,23.4
2017-04-25T03:46:52.174Z,23.4
2017-04-25T03:47:53.231Z,23.4
2017-04-25T03:48:53.300Z,23.4
2017-04-25T03:49:53.388Z,23.4
2017-04-25T03:50:53.372Z,23.4
2017-04-25T03:51:53.477Z,23.4
2017-04-25T03:52:53.541Z,23.4
2017-04-25T03:53:53.593Z,23.4
2017-04-25T03:54:52.536Z,23.4
2017-04-25T03:55:53.785Z,23.4
2017-04-25T03:56:52.824Z,23.4
2017-04-25T03:57:53.843Z,23.4
2017-04-25T03:58:53.960Z,23.4
2017-04-25T03:59:53.968Z,23.4
2017-04-25T04:00:52.985Z,23.4
2017-04-25T04:01:52.949Z,23.4
2017-04-25T04:02:54.098Z,23.4
2017-04-25T04:03:54.219Z,23.4
2017-04-25T04:04:53.128Z,23.4
2017-04-25T04:05:54.370Z,23.4
2017-04-25T04:06:54.429Z,23.4
2017-04-25T04:07:54.425Z,23.4
2017-04-25T04:08:54.539Z,23.4
2017-04-25T04:09:53.485Z,23.4
2017-04-25T04:10:53.567Z,23.4
2017-04-25T04:11:53.556Z,23.4
2017-04-25T04:12:54.640Z,23.4
2017-04-25T04:13:54.785Z,23.4
2017-04-25T04:14:53.857Z,23.5
2017-04-25T04:15:54.818Z,23.5
2017-04-25T04:16:54.920Z,23.5
2017-04-25T04:17:54.870Z,23.5
2017-04-25T04:18:54.945Z,23.5
2017-04-25T04:19:55.093Z,23.5
2017-04-25T04:20:54.016Z,23.5
2017-04-25T04:21:54.092Z,23.5
2017-04-25T04:22:55.268Z,23.5
2017-04-25T04:23:56.083Z,23.5
2017-04-25T04:24:54.255Z,23.5
2017-04-25T04:25:55.428Z,23.5
2017-04-25T04:26:55.074Z,23.5
2017-04-25T04:27:54.549Z,23.5
2017-04-25T04:28:54.571Z,23.5
2017-04-25T04:29:55.543Z,23.5
2017-04-25T04:30:54.564Z,23.6
2017-04-25T04:31:55.226Z,23.7
2017-04-25T04:32:54.810Z,23.8
2017-04-25T04:33:54.836Z,23.9
2017-04-25T04:34:55.910Z,23.9
2017-04-25T04:35:55.974Z,24.1
2017-04-25T04:36:55.531Z,24.2
2017-04-25T04:37:54.960Z,24.3
2017-04-25T04:38:55.085Z,24.3
2017-04-25T04:39:55.154Z,24.4
2017-04-25T04:40:55.044Z,24.5
2017-04-25T04:41:55.060Z,24.6
2017-04-25T04:42:56.273Z,24.6
2017-04-25T04:43:56.278Z,24.6
2017-04-25T04:44:55.401Z,24.7
2017-04-25T04:45:56.382Z,24.7
2017-04-25T04:46:56.397Z,24.7
2017-04-25T04:47:56.495Z,24.7
2017-04-25T04:48:56.446Z,24.8
2017-04-25T04:49:56.522Z,24.8
2017-04-25T04:50:55.497Z,24.8
2017-04-25T04:51:56.699Z,24.9
2017-04-25T04:52:56.665Z,24.9
2017-04-25T04:53:55.606Z,25
2017-04-25T04:54:56.778Z,25
2017-04-25T04:55:56.800Z,25
2017-04-25T04:56:55.781Z,25
2017-04-25T04:57:55.806Z,25
2017-04-25T04:58:55.876Z,25
2017-04-25T04:59:57.045Z,25
2017-04-25T05:00:57.034Z,25
2017-04-25T05:01:57.132Z,25
2017-04-25T05:02:57.494Z,25
2017-04-25T05:03:56.228Z,25
2017-04-25T05:04:57.227Z,25
2017-04-25T05:05:56.314Z,24.9
2017-04-25T05:06:57.389Z,24.9
2017-04-25T05:07:56.511Z,24.9
2017-04-25T05:08:56.442Z,24.9
2017-04-25T05:09:57.662Z,24.9
2017-04-25T05:10:56.631Z,25
2017-04-25T05:11:57.830Z,25
2017-04-25T05:12:57.928Z,25
2017-04-25T05:13:56.942Z,25
2017-04-25T05:14:57.673Z,25
2017-04-25T05:15:57.033Z,24.9
2017-04-25T05:16:56.969Z,24.9
2017-04-25T05:17:57.093Z,24.9
2017-04-25T05:18:57.200Z,24.9
2017-04-25T05:19:57.157Z,24.9
2017-04-25T05:20:57.243Z,24.9
2017-04-25T05:21:57.410Z,24.8
2017-04-25T05:22:58.445Z,24.8
2017-04-25T05:23:57.557Z,24.8
2017-04-25T05:24:59.184Z,24.8
2017-04-25T05:25:58.335Z,24.8
2017-04-25T05:26:58.339Z,24.8
2017-04-25T05:27:58.798Z,24.8
2017-04-25T05:28:59.405Z,24.8
2017-04-25T05:29:57.679Z,24.8
2017-04-25T05:30:59.354Z,24.8
2017-04-25T05:31:59.549Z,24.7
2017-04-25T05:32:59.908Z,24.7
2017-04-25T05:33:59.315Z,24.7
2017-04-25T05:34:58.928Z,24.7
2017-04-25T05:35:57.960Z,24.7
2017-04-25T05:36:59.487Z,24.7
2017-04-25T05:37:59.027Z,24.7
2017-04-25T05:38:58.196Z,24.7
2017-04-25T05:39:58.042Z,24.6
2017-04-25T05:40:59.844Z,24.6
2017-04-25T05:41:59.301Z,24.6
2017-04-25T05:42:59.385Z,24.6
2017-04-25T05:43:59.368Z,24.7
2017-04-25T05:44:59.015Z,24.8
2017-04-25T05:45:59.483Z,24.9
2017-04-25T05:46:59.431Z,24.9
2017-04-25T05:47:58.532Z,25
2017-04-25T05:48:58.571Z,25.1
2017-04-25T05:49:59.646Z,25.2
2017-04-25T05:50:59.625Z,25.2
2017-04-25T05:52:01.521Z,25.3
2017-04-25T05:52:58.799Z,25.3
2017-04-25T05:54:00.272Z,25.3
2017-04-25T05:54:59.772Z,25.3
2017-04-25T05:55:58.694Z,25.4
2017-04-25T05:56:58.902Z,25.4
2017-04-25T05:57:58.807Z,25.4
2017-04-25T05:59:00.606Z,25.4
2017-04-25T05:59:59.657Z,25.5
2017-04-25T06:00:59.020Z,25.5
2017-04-25T06:02:00.277Z,25.5
2017-04-25T06:02:59.102Z,25.5
2017-04-25T06:03:59.866Z,25.5
2017-04-25T06:04:59.268Z,25.5
2017-04-25T06:05:59.330Z,25.5
2017-04-25T06:07:01.180Z,25.5
2017-04-25T06:08:00.498Z,25.5
2017-04-25T06:09:00.263Z,25.5
2017-04-25T06:09:59.616Z,25.5
2017-04-25T06:11:02.136Z,25.5
2017-04-25T06:12:00.916Z,25.5
2017-04-25T06:13:00.938Z,25.5
2017-04-25T06:14:01.594Z,25.5
2017-04-25T06:15:06.256Z,25.5
2017-04-25T06:16:01.567Z,25.5
2017-04-25T06:17:01.133Z,25.5
2017-04-25T06:18:06.134Z,25.5
2017-04-25T06:19:01.685Z,25.5
2017-04-25T06:21:00.716Z,25.5
2017-04-25T06:22:06.879Z,25.4
2017-04-25T06:23:03.254Z,25.4
2017-04-25T06:24:00.163Z,25.3
2017-04-25T06:25:00.255Z,25.3
2017-04-25T06:26:01.629Z,25.3
2017-04-25T06:27:03.751Z,25.3
2017-04-25T06:28:02.308Z,25.2
2017-04-25T06:29:01.716Z,25.2
2017-04-25T06:30:01.429Z,25.2
2017-04-25T06:31:00.728Z,25.1
2017-04-25T06:32:01.421Z,25
2017-04-25T06:33:01.170Z,25
2017-04-25T06:34:12.841Z,25
2017-04-25T06:35:02.755Z,25
2017-04-25T06:36:00.669Z,25
2017-04-25T06:37:01.895Z,25.1
2017-04-25T06:38:01.965Z,25.1
2017-04-25T06:39:01.830Z,25.2
2017-04-25T06:40:03.292Z,25.2
2017-04-25T06:42:03.296Z,25.3
2017-04-25T06:44:00.997Z,25.3
2017-04-25T06:45:15.206Z,25.4
2017-04-25T06:46:02.865Z,25.3
2017-04-25T06:47:02.429Z,25.3
2017-04-25T06:49:02.204Z,25.3
2017-04-25T06:51:03.245Z,25.3
2017-04-25T06:53:02.469Z,25.1
2017-04-25T06:54:03.295Z,25.1
2017-04-25T06:56:03.501Z,25
2017-04-25T06:57:02.283Z,25
2017-04-25T06:58:04.633Z,24.9
2017-04-25T06:59:01.934Z,24.9
2017-04-25T07:00:03.416Z,24.9
2017-04-25T07:01:02.458Z,24.9
2017-04-25T07:02:03.104Z,24.8
2017-04-25T07:03:03.449Z,24.7
2017-04-25T07:04:02.072Z,24.7
2017-04-25T07:05:02.076Z,24.6
2017-04-25T07:06:03.449Z,24.6
2017-04-25T07:07:03.665Z,24.6
2017-04-25T07:08:04.852Z,24.6
2017-04-25T07:09:05.400Z,24.5
2017-04-25T07:10:02.375Z,24.5
2017-04-25T07:11:02.362Z,24.5
2017-04-25T07:12:02.392Z,24.4
2017-04-25T07:13:06.345Z,24.4
2017-04-25T07:14:02.444Z,24.2
2017-04-25T07:15:04.049Z,24.2
2017-04-25T07:16:02.621Z,24.2
2017-04-25T07:17:02.779Z,24.1
2017-04-25T07:18:03.810Z,24.1
2017-04-25T07:19:03.471Z,24
2017-04-25T07:20:03.924Z,24
2017-04-25T07:21:04.943Z,23.9
2017-04-25T07:22:03.602Z,23.9
2017-04-25T07:23:05.064Z,23.8
2017-04-25T07:24:04.689Z,23.9
2017-04-25T07:25:03.231Z,23.9
2017-04-25T07:26:03.635Z,23.9
2017-04-25T07:27:03.271Z,24
2017-04-25T07:28:07.782Z,24
2017-04-25T07:29:07.626Z,24
2017-04-25T07:31:08.094Z,24
2017-04-25T07:32:05.788Z,24
2017-04-25T07:33:08.762Z,24
2017-04-25T07:34:03.504Z,24
2017-04-25T07:35:05.256Z,24.1
2017-04-25T07:36:04.248Z,24.1
2017-04-25T07:37:04.639Z,24
2017-04-25T07:38:06.679Z,24
2017-04-25T07:39:06.031Z,23.9
2017-04-25T07:40:04.887Z,24
2017-04-25T07:41:05.596Z,24.1
2017-04-25T07:42:05.321Z,24.1
2017-04-25T07:43:03.971Z,24.2
2017-04-25T07:44:08.397Z,24.3
2017-04-25T07:45:05.781Z,24.2
2017-04-25T07:46:06.017Z,24.2
2017-04-25T07:47:06.014Z,24.1
2017-04-25T07:48:04.775Z,24
2017-04-25T07:49:05.272Z,23.9
2017-04-25T07:50:05.341Z,23.8
2017-04-25T07:51:05.345Z,23.7
2017-04-25T07:52:05.412Z,23.6
2017-04-25T07:53:04.371Z,23.5
2017-04-25T07:54:05.483Z,23.5
2017-04-25T07:55:05.655Z,23.4
2017-04-25T07:56:05.264Z,23.4
2017-04-25T07:57:09.004Z,23.4
2017-04-25T07:58:06.264Z,23.3
2017-04-25T07:59:06.385Z,23.3
2017-04-25T08:00:06.064Z,23.3
2017-04-25T08:01:04.719Z,23.2
2017-04-25T08:02:04.797Z,23.3
2017-04-25T08:03:06.669Z,23.3
2017-04-25T08:04:05.579Z,23.2
2017-04-25T08:05:05.903Z,23.2
2017-04-25T08:06:06.460Z,23.2
2017-04-25T08:07:04.894Z,23.1
2017-04-25T08:08:05.019Z,23.1
2017-04-25T08:09:05.816Z,23
2017-04-25T08:10:09.824Z,23
2017-04-25T08:11:09.066Z,23
2017-04-25T08:12:09.565Z,23
2017-04-25T08:13:11.167Z,22.9
2017-04-25T08:14:10.578Z,22.9
2017-04-25T08:15:12.327Z,22.8
2017-04-25T08:16:10.986Z,22.8
2017-04-25T08:17:09.373Z,22.8
2017-04-25T08:18:09.159Z,22.7
2017-04-25T08:19:08.439Z,22.7
2017-04-25T08:20:12.337Z,22.6
2017-04-25T08:21:08.258Z,22.6
2017-04-25T08:22:08.708Z,22.6
2017-04-25T08:23:07.721Z,22.6
2017-04-25T08:24:08.789Z,22.5
2017-04-25T08:25:09.908Z,22.5
2017-04-25T08:26:09.193Z,22.4
2017-04-25T08:27:09.018Z,22.4
2017-04-25T08:28:09.460Z,22.4
2017-04-25T08:29:10.525Z,22.3
2017-04-25T08:30:09.236Z,22.3
2017-04-25T08:31:08.185Z,22.3
2017-04-25T08:32:10.570Z,22.3
2017-04-25T08:33:13.042Z,22.4
2017-04-25T08:34:15.235Z,22.4
2017-04-25T08:35:11.595Z,22.4
2017-04-25T08:36:14.894Z,22.5
2017-04-25T08:37:12.134Z,22.5
2017-04-25T08:38:16.572Z,22.4
2017-04-25T08:39:14.943Z,22.3
2017-04-25T08:40:12.474Z,22.2
2017-04-25T08:41:16.039Z,22.1
2017-04-25T08:42:12.501Z,22
2017-04-25T08:43:09.483Z,22
2017-04-25T08:44:09.297Z,22.1
2017-04-25T08:45:12.551Z,22.2
2017-04-25T08:46:12.751Z,22.2
2017-04-25T08:47:12.281Z,22
2017-04-25T08:48:10.989Z,21.9
2017-04-25T08:49:12.210Z,21.7
2017-04-25T08:50:17.198Z,21.5
2017-04-25T08:51:10.763Z,21.5
2017-04-25T08:52:19.620Z,21.3
2017-04-25T08:53:13.666Z,21.1
2017-04-25T08:54:12.437Z,21.2
2017-04-25T08:55:11.018Z,21
2017-04-25T08:56:10.546Z,20.9
2017-04-25T08:57:12.656Z,20.6
2017-04-25T08:58:13.685Z,20.3
2017-04-25T08:59:13.508Z,20.3
2017-04-25T09:00:11.685Z,20.1
2017-04-25T09:01:11.102Z,19.8
2017-04-25T09:02:12.700Z,19.7
2017-04-25T09:03:11.704Z,19.8
2017-04-25T09:04:12.781Z,19.8
2017-04-25T09:05:14.389Z,19.6
2017-04-25T09:06:12.099Z,19.4
2017-04-25T09:07:11.104Z,19.1
2017-04-25T09:08:14.101Z,19
2017-04-25T09:09:10.858Z,18.8
2017-04-25T09:10:12.598Z,18.7
2017-04-25T09:11:13.974Z,18.7
2017-04-25T09:12:12.046Z,18.9
2017-04-25T09:13:11.163Z,18.9
2017-04-25T09:14:10.523Z,18.9
2017-04-25T09:16:12.879Z,19
2017-04-25T09:17:11.836Z,19.2
2017-04-25T09:18:13.526Z,19.4
2017-04-25T09:19:15.575Z,19.5
2017-04-25T09:20:13.782Z,19.6
2017-04-25T09:21:12.206Z,19.7
2017-04-25T09:22:15.316Z,19.8
2017-04-25T09:23:17.986Z,19.9
2017-04-25T09:24:16.826Z,20.1
2017-04-25T09:25:25.751Z,20.1
2017-04-25T09:26:15.225Z,20.2
2017-04-25T09:27:17.743Z,20.2
2017-04-25T09:28:15.084Z,20.2
2017-04-25T09:29:14.815Z,20.1
2017-04-25T09:30:19.357Z,20.1
2017-04-25T09:31:15.615Z,20.2
2017-04-25T09:32:20.189Z,20.3
2017-04-25T09:33:20.475Z,20.3
2017-04-25T09:34:17.569Z,20.4
2017-04-25T09:35:14.861Z,20.5
2017-04-25T09:36:16.419Z,20.5
2017-04-25T09:37:18.215Z,20.5
2017-04-25T09:38:17.028Z,20.6
2017-04-25T09:39:18.057Z,20.6
2017-04-25T09:40:16.741Z,20.7
2017-04-25T09:41:19.812Z,20.7
2017-04-25T09:42:15.293Z,20.8
2017-04-25T09:43:18.104Z,20.8
2017-04-25T09:44:15.460Z,20.9
2017-04-25T09:45:17.958Z,20.7
2017-04-25T09:48:17.682Z,20.4
2017-04-25T09:49:22.052Z,20.4
2017-04-25T09:50:23.936Z,20.4
2017-04-25T09:51:17.819Z,20.4
2017-04-25T09:52:24.561Z,20.4
2017-04-25T09:53:23.278Z,20.4
2017-04-25T09:55:25.037Z,20.4
2017-04-25T10:13:27.365Z,20.7
2017-04-25T10:20:24.579Z,20.7
2017-04-25T10:26:28.461Z,20.6
2017-04-25T10:29:26.950Z,20.5
2017-04-25T10:33:23.165Z,20.6
2017-04-25T10:48:30.441Z,20.4
2017-04-25T10:52:34.366Z,20.5
2017-04-25T10:54:23.494Z,20.5
2017-04-25T10:55:27.903Z,20.6
2017-04-25T11:00:28.166Z,20.9
2017-04-25T11:01:27.943Z,21
2017-04-25T11:02:30.443Z,21
2017-04-25T11:12:30.059Z,21.3
2017-04-25T11:18:26.898Z,21.4
2017-04-25T11:30:30.276Z,21.6
2017-04-25T11:32:28.360Z,21.6
2017-04-25T11:33:26.431Z,21.6
2017-04-25T11:34:25.440Z,21.6
2017-04-25T11:40:29.767Z,21.6
2017-04-25T11:43:23.478Z,21.6
2017-04-25T11:44:20.806Z,21.5
2017-04-25T11:45:22.241Z,21.5
2017-04-25T11:46:24.008Z,21.5
2017-04-25T11:47:18.112Z,21.5
2017-04-25T11:48:18.819Z,21.4
2017-04-25T11:49:18.124Z,21.4
2017-04-25T11:50:19.378Z,21.4
2017-04-25T11:51:19.483Z,21.3
2017-04-25T11:52:18.269Z,21.3
2017-04-25T11:53:25.221Z,21.3
2017-04-25T11:54:24.223Z,21.3
2017-04-25T11:55:22.211Z,21.4
2017-04-25T11:56:25.667Z,21.4
2017-04-25T11:57:28.312Z,21.4
2017-04-25T11:58:28.300Z,21.5
2017-04-25T11:59:27.093Z,21.6
2017-04-25T12:00:29.121Z,21.6
2017-04-25T12:01:27.234Z,21.7
2017-04-25T12:02:27.812Z,21.7
2017-04-25T12:04:23.428Z,21.8
2017-04-25T12:05:24.347Z,21.8
2017-04-25T12:06:28.642Z,21.9
2017-04-25T12:07:32.074Z,21.9
2017-04-25T12:08:28.692Z,22
2017-04-25T12:09:28.862Z,22.1
2017-04-25T12:11:32.945Z,22.2
2017-04-25T12:21:34.181Z,23.4
2017-04-25T12:22:27.264Z,23.5
2017-04-25T12:27:33.613Z,23.9
2017-04-25T12:29:36.357Z,24
2017-04-25T12:39:35.421Z,21.2
2017-04-25T12:40:30.342Z,20.5
2017-04-25T12:41:25.786Z,20
2017-04-25T12:42:31.052Z,19.6
2017-04-25T12:52:39.143Z,16.6
2017-04-25T12:56:34.294Z,16
2017-04-25T12:57:29.493Z,16
2017-04-25T13:37:23.431Z,23.7
2017-04-25T13:38:19.222Z,23.8
2017-04-25T13:39:17.970Z,23.8
2017-04-25T13:40:16.290Z,23.8
2017-04-25T13:41:18.638Z,23.9
2017-04-25T13:42:17.556Z,23.9
2017-04-25T13:43:19.369Z,23.9
2017-04-25T13:44:18.846Z,23.9
2017-04-25T13:45:18.804Z,23.8
2017-04-25T13:46:20.476Z,23.8
2017-04-25T13:47:18.115Z,23.9
2017-04-25T13:48:17.609Z,23.8
2017-04-25T13:49:17.834Z,23.7
2017-04-25T13:50:16.782Z,23.7
2017-04-25T13:51:17.992Z,23.7
2017-04-25T13:52:21.993Z,23.7
2017-04-25T13:53:18.653Z,23.7
2017-04-25T13:54:20.206Z,23.7
2017-04-25T13:55:16.973Z,23.6
2017-04-25T13:56:20.057Z,23.5
2017-04-25T13:57:18.123Z,23.5
2017-04-25T13:58:18.709Z,23.5
2017-04-25T13:59:18.506Z,23.5
2017-04-25T14:00:18.954Z,23.5
2017-04-25T14:01:22.076Z,23.4
2017-04-25T14:02:18.001Z,23.3
2017-04-25T14:03:23.123Z,23.4
2017-04-25T14:04:17.972Z,23.4
2017-04-25T14:05:18.752Z,23.4
2017-04-25T14:06:21.185Z,23.4
2017-04-25T14:09:21.609Z,23.4
2017-04-25T14:10:21.699Z,23.3
2017-04-25T14:11:21.431Z,23.3
2017-04-25T14:12:22.133Z,23.4
2017-04-25T14:13:23.637Z,23.4
2017-04-25T14:14:22.970Z,23.4
2017-04-25T14:15:20.220Z,23.4
2017-04-25T14:16:21.366Z,23.4
2017-04-25T14:17:23.550Z,23.4
2017-04-25T14:18:21.153Z,23.3
2017-04-25T14:19:23.907Z,23.3
2017-04-25T14:20:21.269Z,23.3
2017-04-25T14:21:20.199Z,23.2
2017-04-25T14:22:26.485Z,23.1
2017-04-25T14:23:21.620Z,23.1
2017-04-25T14:24:21.586Z,23
2017-04-25T14:25:23.121Z,23.1
2017-04-25T14:26:21.780Z,23
2017-04-25T14:27:20.421Z,23
2017-04-25T14:28:20.999Z,22.9
2017-04-25T14:29:25.057Z,22.9
2017-04-25T14:30:22.966Z,22.9
2017-04-25T14:31:21.769Z,22.8
2017-04-25T14:32:23.845Z,22.8
2017-04-25T14:34:20.824Z,22.6
2017-04-25T14:35:23.883Z,22.5
2017-04-25T14:36:22.950Z,22.4
2017-04-25T14:37:23.265Z,22.4
2017-04-25T14:38:22.955Z,22.2
2017-04-25T14:39:21.361Z,22.1
2017-04-25T14:40:24.061Z,22
2017-04-25T14:41:24.446Z,22
2017-04-25T14:42:20.026Z,22
2017-04-25T14:43:22.298Z,21.9
2017-04-25T14:44:23.239Z,21.8
2017-04-25T14:45:23.162Z,21.7
2017-04-25T14:46:24.557Z,21.6
2017-04-25T14:47:21.866Z,21.6
2017-04-25T14:48:21.271Z,21.7
2017-04-25T14:49:20.396Z,21.9
2017-04-25T14:50:19.611Z,21.9
2017-04-25T14:51:20.410Z,22
2017-04-25T14:52:22.579Z,22.2
2017-04-25T14:53:22.239Z,22.3
2017-04-25T14:54:20.982Z,22.3
2017-04-25T14:55:20.983Z,22.4
2017-04-25T14:56:21.655Z,22.5
2017-04-25T14:57:19.935Z,22.5
2017-04-25T14:58:22.115Z,22.5
2017-04-25T14:59:25.079Z,22.5
2017-04-25T15:00:21.839Z,22.6
2017-04-25T15:01:20.102Z,22.6
2017-04-25T15:02:23.969Z,22.6
2017-04-25T15:03:21.403Z,22.6
2017-04-25T15:04:21.717Z,22.6
2017-04-25T15:05:22.330Z,22.6
2017-04-25T15:06:21.550Z,22.6
2017-04-25T15:07:21.568Z,22.5
2017-04-25T15:08:21.562Z,22.5
2017-04-25T15:09:20.443Z,22.5
2017-04-25T15:10:20.934Z,22.5
2017-04-25T15:11:20.525Z,22.5
2017-04-25T15:12:24.139Z,22.5
2017-04-25T15:13:22.360Z,22.5
2017-04-25T15:15:22.416Z,22.5
2017-04-25T15:16:21.126Z,22.5
2017-04-25T15:17:23.095Z,22.5
2017-04-25T15:18:21.519Z,22.4
2017-04-25T15:19:20.888Z,22.4
2017-04-25T15:20:22.502Z,22.4
2017-04-25T15:21:22.107Z,22.3
2017-04-25T15:22:24.351Z,22.3
2017-04-25T15:23:25.048Z,22.3
2017-04-25T15:24:23.405Z,22.2
2017-04-25T15:25:23.649Z,22.2
2017-04-25T15:26:26.946Z,22.2
2017-04-25T15:27:22.346Z,22.2
2017-04-25T15:28:23.132Z,22.2
2017-04-25T15:29:21.754Z,22.2
2017-04-25T15:30:23.952Z,22.2
2017-04-25T15:31:23.091Z,22.1
2017-04-25T15:32:22.690Z,22.1
2017-04-25T15:33:22.691Z,22.1
2017-04-25T15:34:23.965Z,22.1
2017-04-25T15:35:24.926Z,22.1
2017-04-25T15:36:22.375Z,22.1
2017-04-25T15:37:23.073Z,22.1
2017-04-25T15:38:25.786Z,22.1
2017-04-25T15:39:23.545Z,22.1
2017-04-25T15:40:22.250Z,22.1
2017-04-25T15:41:23.175Z,22.1
2017-04-25T15:42:23.742Z,22.1
2017-04-25T15:43:22.079Z,22.1
2017-04-25T15:44:23.310Z,22.1
2017-04-25T15:45:23.200Z,22.1
2017-04-25T15:46:23.158Z,22.1
2017-04-25T15:47:24.070Z,22.1
2017-04-25T15:48:24.121Z,22.1
2017-04-25T15:49:23.555Z,22.1
2017-04-25T15:50:25.097Z,22.2
2017-04-25T15:51:22.610Z,22.2
2017-04-25T15:52:24.691Z,22.2
2017-04-25T15:53:23.944Z,22.2
2017-04-25T15:54:22.811Z,22.2
2017-04-25T15:55:24.037Z,22.2
2017-04-25T15:56:27.511Z,22.2
2017-04-25T15:57:24.044Z,22.2
2017-04-25T15:58:23.292Z,22.2
2017-04-25T15:59:24.248Z,22.2
2017-04-25T16:00:23.780Z,22.2
2017-04-25T16:01:24.346Z,22.2
2017-04-25T16:02:23.227Z,22.2
2017-04-25T16:03:24.480Z,22.3
2017-04-25T16:04:24.845Z,22.3
2017-04-25T16:05:23.470Z,22.3
2017-04-25T16:06:23.483Z,22.3
2017-04-25T16:07:24.601Z,22.2
2017-04-25T16:08:23.652Z,22.2
2017-04-25T16:09:24.222Z,22.2
2017-04-25T16:10:23.935Z,22.2
2017-04-25T16:11:24.704Z,22.2
2017-04-25T16:12:26.043Z,22.2
2017-04-25T16:13:25.837Z,22.2
2017-04-25T16:14:24.872Z,22.2
2017-04-25T16:15:28.976Z,22.1
2017-04-25T16:16:24.684Z,22.1
2017-04-25T16:17:25.055Z,22.1
2017-04-25T16:18:24.007Z,22.1
2017-04-25T16:19:25.129Z,22.1
2017-04-25T16:20:24.125Z,22.1
2017-04-25T16:21:24.517Z,22.1
2017-04-25T16:22:25.281Z,22.1
2017-04-25T16:23:28.149Z,22.1
2017-04-25T16:24:25.414Z,22.1
2017-04-25T16:25:25.497Z,22.1
2017-04-25T16:26:24.468Z,22.1